sensor_id;sensor_type;location;lat;lon;timestamp;P1;durP1;ratioP1;P2;durP2;ratioP2
12962;SDS011;6546;49.882;8.666;2023-08-21T00:00:30;7.90;;;7.17;;
12962;SDS011;6546;49.882;8.666;2023-08-21T00:02:57;10.50;;;7.47;;
12962;SDS011;6546;49.882;8.666;2023-08-21T00:05:23;10.27;;;7.25;;
12962;SDS011;6546;49.882;8.666;2023-08-21T00:07:50;8.25;;;7.40;;
12962;SDS011;6546;49.882;8.666;2023-08-21T00:10:16;8.37;;;7.60;;
12962;SDS011;6546;49.882;8.666;2023-08-21T00:12:43;8.43;;;6.93;;
12962;SDS011;6546;49.882;8.666;2023-08-21T00:15:11;7.83;;;7.07;;
12962;SDS011;6546;49.882;8.666;2023-08-21T00:17:37;8.20;;;7.35;;
12962;SDS011;6546;49.882;8.666;2023-08-21T00:20:05;9.93;;;7.63;;
12962;SDS011;6546;49.882;8.666;2023-08-21T00:22:34;8.68;;;7.35;;
12962;SDS011;6546;49.882;8.666;2023-08-21T00:25:01;8.10;;;7.30;;
12962;SDS011;6546;49.882;8.666;2023-08-21T00:27:27;8.97;;;7.47;;
12962;SDS011;6546;49.882;8.666;2023-08-21T00:29:54;7.72;;;6.82;;
12962;SDS011;6546;49.882;8.666;2023-08-21T00:32:22;8.63;;;7.73;;
12962;SDS011;6546;49.882;8.666;2023-08-21T00:34:48;9.40;;;6.90;;
12962;SDS011;6546;49.882;8.666;2023-08-21T00:37:15;8.13;;;7.38;;
12962;SDS011;6546;49.882;8.666;2023-08-21T00:39:41;8.83;;;7.83;;
12962;SDS011;6546;49.882;8.666;2023-08-21T00:42:08;8.97;;;7.20;;
12962;SDS011;6546;49.882;8.666;2023-08-21T00:44:35;9.53;;;7.10;;
12962;SDS011;6546;49.882;8.666;2023-08-21T00:47:01;9.03;;;7.60;;
12962;SDS011;6546;49.882;8.666;2023-08-21T00:49:30;10.57;;;7.72;;
12962;SDS011;6546;49.882;8.666;2023-08-21T00:51:58;8.33;;;7.00;;
12962;SDS011;6546;49.882;8.666;2023-08-21T00:54:25;7.97;;;7.17;;
12962;SDS011;6546;49.882;8.666;2023-08-21T00:56:52;9.57;;;7.37;;
12962;SDS011;6546;49.882;8.666;2023-08-21T00:59:18;10.10;;;7.80;;
12962;SDS011;6546;49.882;8.666;2023-08-21T01:01:45;11.07;;;7.80;;
12962;SDS011;6546;49.882;8.666;2023-08-21T01:04:12;8.43;;;7.63;;
12962;SDS011;6546;49.882;8.666;2023-08-21T01:06:40;8.93;;;8.03;;
12962;SDS011;6546;49.882;8.666;2023-08-21T01:09:08;8.47;;;7.57;;
12962;SDS011;6546;49.882;8.666;2023-08-21T01:11:46;9.50;;;8.10;;
12962;SDS011;6546;49.882;8.666;2023-08-21T01:14:17;9.37;;;8.37;;
12962;SDS011;6546;49.882;8.666;2023-08-21T01:17:02;9.60;;;8.30;;
12962;SDS011;6546;49.882;8.666;2023-08-21T01:19:31;8.07;;;7.37;;
12962;SDS011;6546;49.882;8.666;2023-08-21T01:22:08;12.77;;;7.97;;
12962;SDS011;6546;49.882;8.666;2023-08-21T01:24:39;9.03;;;8.13;;
12962;SDS011;6546;49.882;8.666;2023-08-21T01:27:09;11.87;;;8.37;;
12962;SDS011;6546;49.882;8.666;2023-08-21T01:29:36;9.80;;;7.93;;
12962;SDS011;6546;49.882;8.666;2023-08-21T01:32:06;10.32;;;8.13;;
12962;SDS011;6546;49.882;8.666;2023-08-21T01:34:36;8.80;;;8.00;;
12962;SDS011;6546;49.882;8.666;2023-08-21T01:37:04;9.13;;;8.23;;
12962;SDS011;6546;49.882;8.666;2023-08-21T01:39:31;13.43;;;8.77;;
12962;SDS011;6546;49.882;8.666;2023-08-21T01:42:00;11.10;;;8.60;;
12962;SDS011;6546;49.882;8.666;2023-08-21T01:44:27;9.43;;;8.13;;
12962;SDS011;6546;49.882;8.666;2023-08-21T01:46:53;9.37;;;8.30;;
12962;SDS011;6546;49.882;8.666;2023-08-21T01:49:20;9.83;;;8.93;;
12962;SDS011;6546;49.882;8.666;2023-08-21T01:51:46;9.87;;;8.97;;
12962;SDS011;6546;49.882;8.666;2023-08-21T01:54:13;10.20;;;9.20;;
12962;SDS011;6546;49.882;8.666;2023-08-21T01:56:40;9.90;;;8.53;;
12962;SDS011;6546;49.882;8.666;2023-08-21T01:59:08;10.10;;;9.10;;
12962;SDS011;6546;49.882;8.666;2023-08-21T02:01:34;9.63;;;8.67;;
12962;SDS011;6546;49.882;8.666;2023-08-21T02:04:01;11.27;;;8.70;;
12962;SDS011;6546;49.882;8.666;2023-08-21T02:06:27;11.33;;;8.90;;
12962;SDS011;6546;49.882;8.666;2023-08-21T02:08:54;10.77;;;9.63;;
12962;SDS011;6546;49.882;8.666;2023-08-21T02:11:20;10.00;;;9.00;;
12962;SDS011;6546;49.882;8.666;2023-08-21T02:13:47;10.23;;;9.00;;
12962;SDS011;6546;49.882;8.666;2023-08-21T02:16:15;12.17;;;9.50;;
12962;SDS011;6546;49.882;8.666;2023-08-21T02:18:41;11.30;;;9.50;;
12962;SDS011;6546;49.882;8.666;2023-08-21T02:21:08;10.53;;;9.60;;
12962;SDS011;6546;49.882;8.666;2023-08-21T02:23:34;11.80;;;10.70;;
12962;SDS011;6546;49.882;8.666;2023-08-21T02:26:01;11.23;;;9.57;;
12962;SDS011;6546;49.882;8.666;2023-08-21T02:28:27;11.17;;;10.07;;
12962;SDS011;6546;49.882;8.666;2023-08-21T02:30:54;10.40;;;9.27;;
12962;SDS011;6546;49.882;8.666;2023-08-21T02:33:22;11.93;;;10.73;;
12962;SDS011;6546;49.882;8.666;2023-08-21T02:35:49;10.63;;;9.73;;
12962;SDS011;6546;49.882;8.666;2023-08-21T02:38:16;10.60;;;9.60;;
12962;SDS011;6546;49.882;8.666;2023-08-21T02:40:43;10.73;;;9.60;;
12962;SDS011;6546;49.882;8.666;2023-08-21T02:43:09;10.97;;;9.70;;
12962;SDS011;6546;49.882;8.666;2023-08-21T02:45:36;10.07;;;9.17;;
12962;SDS011;6546;49.882;8.666;2023-08-21T02:48:03;10.70;;;9.67;;
12962;SDS011;6546;49.882;8.666;2023-08-21T02:50:31;10.90;;;9.77;;
12962;SDS011;6546;49.882;8.666;2023-08-21T02:52:58;10.30;;;9.30;;
12962;SDS011;6546;49.882;8.666;2023-08-21T02:55:24;11.50;;;9.20;;
12962;SDS011;6546;49.882;8.666;2023-08-21T02:57:51;11.07;;;10.00;;
12962;SDS011;6546;49.882;8.666;2023-08-21T03:00:17;11.33;;;10.13;;
12962;SDS011;6546;49.882;8.666;2023-08-21T03:02:44;12.03;;;9.90;;
12962;SDS011;6546;49.882;8.666;2023-08-21T03:05:11;10.93;;;9.90;;
12962;SDS011;6546;49.882;8.666;2023-08-21T03:07:40;11.17;;;10.13;;
12962;SDS011;6546;49.882;8.666;2023-08-21T03:10:07;11.20;;;10.23;;
12962;SDS011;6546;49.882;8.666;2023-08-21T03:12:34;11.23;;;10.17;;
12962;SDS011;6546;49.882;8.666;2023-08-21T03:15:01;11.20;;;10.10;;
12962;SDS011;6546;49.882;8.666;2023-08-21T03:17:28;11.73;;;10.20;;
12962;SDS011;6546;49.882;8.666;2023-08-21T03:19:54;13.03;;;10.90;;
12962;SDS011;6546;49.882;8.666;2023-08-21T03:22:21;11.60;;;10.47;;
12962;SDS011;6546;49.882;8.666;2023-08-21T03:24:49;11.87;;;10.50;;
12962;SDS011;6546;49.882;8.666;2023-08-21T03:27:16;14.13;;;10.37;;
12962;SDS011;6546;49.882;8.666;2023-08-21T03:29:42;12.50;;;11.30;;
12962;SDS011;6546;49.882;8.666;2023-08-21T03:32:13;12.13;;;11.03;;
12962;SDS011;6546;49.882;8.666;2023-08-21T03:34:40;12.63;;;10.70;;
12962;SDS011;6546;49.882;8.666;2023-08-21T03:37:07;14.33;;;11.30;;
12962;SDS011;6546;49.882;8.666;2023-08-21T03:39:33;12.00;;;10.80;;
12962;SDS011;6546;49.882;8.666;2023-08-21T03:42:01;12.27;;;11.07;;
12962;SDS011;6546;49.882;8.666;2023-08-21T03:44:28;12.07;;;10.77;;
12962;SDS011;6546;49.882;8.666;2023-08-21T03:46:54;11.60;;;10.40;;
12962;SDS011;6546;49.882;8.666;2023-08-21T03:49:21;11.73;;;10.53;;
12962;SDS011;6546;49.882;8.666;2023-08-21T03:51:47;12.43;;;11.27;;
12962;SDS011;6546;49.882;8.666;2023-08-21T03:54:14;12.50;;;11.20;;
12962;SDS011;6546;49.882;8.666;2023-08-21T03:56:40;12.40;;;11.33;;
12962;SDS011;6546;49.882;8.666;2023-08-21T03:59:09;13.70;;;10.90;;
12962;SDS011;6546;49.882;8.666;2023-08-21T04:01:36;12.47;;;11.17;;
12962;SDS011;6546;49.882;8.666;2023-08-21T04:04:03;14.70;;;12.07;;
12962;SDS011;6546;49.882;8.666;2023-08-21T04:06:29;12.37;;;11.17;;
12962;SDS011;6546;49.882;8.666;2023-08-21T04:08:56;11.77;;;10.57;;
12962;SDS011;6546;49.882;8.666;2023-08-21T04:11:23;12.70;;;11.53;;
12962;SDS011;6546;49.882;8.666;2023-08-21T04:13:49;12.37;;;11.17;;
12962;SDS011;6546;49.882;8.666;2023-08-21T04:16:17;12.73;;;11.47;;
12962;SDS011;6546;49.882;8.666;2023-08-21T04:18:46;12.57;;;11.37;;
12962;SDS011;6546;49.882;8.666;2023-08-21T04:21:12;13.37;;;11.57;;
12962;SDS011;6546;49.882;8.666;2023-08-21T04:23:41;13.10;;;11.70;;
12962;SDS011;6546;49.882;8.666;2023-08-21T04:26:08;12.83;;;11.33;;
12962;SDS011;6546;49.882;8.666;2023-08-21T04:28:35;12.20;;;11.07;;
12962;SDS011;6546;49.882;8.666;2023-08-21T04:31:04;12.47;;;11.33;;
12962;SDS011;6546;49.882;8.666;2023-08-21T04:33:32;12.30;;;11.13;;
12962;SDS011;6546;49.882;8.666;2023-08-21T04:35:59;13.67;;;12.23;;
12962;SDS011;6546;49.882;8.666;2023-08-21T04:38:26;13.47;;;12.07;;
12962;SDS011;6546;49.882;8.666;2023-08-21T04:40:52;13.10;;;11.90;;
12962;SDS011;6546;49.882;8.666;2023-08-21T04:43:19;12.57;;;11.03;;
12962;SDS011;6546;49.882;8.666;2023-08-21T04:45:47;13.87;;;12.50;;
12962;SDS011;6546;49.882;8.666;2023-08-21T04:48:14;14.20;;;12.70;;
12962;SDS011;6546;49.882;8.666;2023-08-21T04:50:42;13.43;;;11.60;;
12962;SDS011;6546;49.882;8.666;2023-08-21T04:53:09;13.07;;;11.63;;
12962;SDS011;6546;49.882;8.666;2023-08-21T04:55:36;13.40;;;12.27;;
12962;SDS011;6546;49.882;8.666;2023-08-21T04:58:02;12.73;;;11.43;;
12962;SDS011;6546;49.882;8.666;2023-08-21T05:00:29;12.87;;;11.73;;
12962;SDS011;6546;49.882;8.666;2023-08-21T05:02:56;13.40;;;12.20;;
12962;SDS011;6546;49.882;8.666;2023-08-21T05:05:22;12.90;;;11.33;;
12962;SDS011;6546;49.882;8.666;2023-08-21T05:07:51;12.87;;;11.67;;
12962;SDS011;6546;49.882;8.666;2023-08-21T05:10:18;13.00;;;11.73;;
12962;SDS011;6546;49.882;8.666;2023-08-21T05:12:44;13.67;;;12.23;;
12962;SDS011;6546;49.882;8.666;2023-08-21T05:15:11;12.70;;;11.60;;
12962;SDS011;6546;49.882;8.666;2023-08-21T05:17:38;13.00;;;11.43;;
12962;SDS011;6546;49.882;8.666;2023-08-21T05:20:05;14.53;;;12.60;;
12962;SDS011;6546;49.882;8.666;2023-08-21T05:22:32;13.43;;;12.03;;
12962;SDS011;6546;49.882;8.666;2023-08-21T05:24:59;13.30;;;12.00;;
12962;SDS011;6546;49.882;8.666;2023-08-21T05:27:26;13.20;;;12.00;;
12962;SDS011;6546;49.882;8.666;2023-08-21T05:29:53;13.47;;;12.07;;
12962;SDS011;6546;49.882;8.666;2023-08-21T05:32:19;13.80;;;12.47;;
12962;SDS011;6546;49.882;8.666;2023-08-21T05:34:46;14.40;;;12.10;;
12962;SDS011;6546;49.882;8.666;2023-08-21T05:37:12;15.37;;;12.17;;
12962;SDS011;6546;49.882;8.666;2023-08-21T05:39:39;13.23;;;12.03;;
12962;SDS011;6546;49.882;8.666;2023-08-21T05:42:07;14.23;;;12.90;;
12962;SDS011;6546;49.882;8.666;2023-08-21T05:44:34;13.60;;;12.40;;
12962;SDS011;6546;49.882;8.666;2023-08-21T05:47:00;12.93;;;11.57;;
12962;SDS011;6546;49.882;8.666;2023-08-21T05:49:27;13.00;;;11.80;;
12962;SDS011;6546;49.882;8.666;2023-08-21T05:51:55;13.90;;;12.40;;
12962;SDS011;6546;49.882;8.666;2023-08-21T05:54:24;14.23;;;12.80;;
12962;SDS011;6546;49.882;8.666;2023-08-21T05:56:51;13.67;;;12.37;;
12962;SDS011;6546;49.882;8.666;2023-08-21T05:59:27;14.13;;;12.80;;
12962;SDS011;6546;49.882;8.666;2023-08-21T06:01:55;13.83;;;10.80;;
12962;SDS011;6546;49.882;8.666;2023-08-21T06:04:22;12.18;;;10.93;;
12962;SDS011;6546;49.882;8.666;2023-08-21T06:06:49;11.38;;;9.77;;
12962;SDS011;6546;49.882;8.666;2023-08-21T06:09:15;12.15;;;9.98;;
12962;SDS011;6546;49.882;8.666;2023-08-21T06:11:43;15.45;;;10.23;;
12962;SDS011;6546;49.882;8.666;2023-08-21T06:14:10;21.27;;;10.02;;
12962;SDS011;6546;49.882;8.666;2023-08-21T06:16:37;22.42;;;10.52;;
12962;SDS011;6546;49.882;8.666;2023-08-21T06:19:04;18.20;;;9.32;;
12962;SDS011;6546;49.882;8.666;2023-08-21T06:21:31;17.13;;;9.23;;
12962;SDS011;6546;49.882;8.666;2023-08-21T06:23:57;17.27;;;9.90;;
12962;SDS011;6546;49.882;8.666;2023-08-21T06:26:24;25.88;;;11.10;;
12962;SDS011;6546;49.882;8.666;2023-08-21T06:28:51;19.27;;;8.70;;
12962;SDS011;6546;49.882;8.666;2023-08-21T06:31:19;14.52;;;8.70;;
12962;SDS011;6546;49.882;8.666;2023-08-21T06:33:47;10.27;;;9.18;;
12962;SDS011;6546;49.882;8.666;2023-08-21T06:36:13;10.60;;;9.32;;
12962;SDS011;6546;49.882;8.666;2023-08-21T06:38:40;16.13;;;10.65;;
12962;SDS011;6546;49.882;8.666;2023-08-21T06:41:07;77.78;;;16.05;;
12962;SDS011;6546;49.882;8.666;2023-08-21T06:43:33;33.17;;;11.38;;
12962;SDS011;6546;49.882;8.666;2023-08-21T06:46:00;18.05;;;9.38;;
12962;SDS011;6546;49.882;8.666;2023-08-21T06:48:27;45.08;;;12.93;;
12962;SDS011;6546;49.882;8.666;2023-08-21T06:50:55;12.43;;;8.68;;
12962;SDS011;6546;49.882;8.666;2023-08-21T06:53:22;10.55;;;8.07;;
12962;SDS011;6546;49.882;8.666;2023-08-21T06:55:48;11.18;;;8.43;;
12962;SDS011;6546;49.882;8.666;2023-08-21T06:58:15;8.10;;;7.40;;
12962;SDS011;6546;49.882;8.666;2023-08-21T07:00:41;31.15;;;9.90;;
12962;SDS011;6546;49.882;8.666;2023-08-21T07:03:08;14.93;;;8.68;;
12962;SDS011;6546;49.882;8.666;2023-08-21T07:05:35;12.50;;;8.65;;
12962;SDS011;6546;49.882;8.666;2023-08-21T07:08:03;12.38;;;7.85;;
12962;SDS011;6546;49.882;8.666;2023-08-21T07:10:30;17.58;;;9.27;;
12962;SDS011;6546;49.882;8.666;2023-08-21T07:13:02;18.48;;;8.80;;
12962;SDS011;6546;49.882;8.666;2023-08-21T07:15:29;125.35;;;22.35;;
12962;SDS011;6546;49.882;8.666;2023-08-21T07:17:55;14.48;;;8.48;;
12962;SDS011;6546;49.882;8.666;2023-08-21T07:20:22;21.23;;;9.13;;
12962;SDS011;6546;49.882;8.666;2023-08-21T07:22:48;13.95;;;8.90;;
12962;SDS011;6546;49.882;8.666;2023-08-21T07:25:17;13.80;;;8.30;;
12962;SDS011;6546;49.882;8.666;2023-08-21T07:27:43;13.95;;;8.75;;
12962;SDS011;6546;49.882;8.666;2023-08-21T07:30:10;11.68;;;8.57;;
12962;SDS011;6546;49.882;8.666;2023-08-21T07:32:37;9.52;;;8.55;;
12962;SDS011;6546;49.882;8.666;2023-08-21T07:35:04;8.95;;;8.25;;
12962;SDS011;6546;49.882;8.666;2023-08-21T07:37:31;9.77;;;8.73;;
12962;SDS011;6546;49.882;8.666;2023-08-21T07:39:58;9.20;;;8.27;;
12962;SDS011;6546;49.882;8.666;2023-08-21T07:42:26;12.40;;;8.82;;
12962;SDS011;6546;49.882;8.666;2023-08-21T07:44:52;10.25;;;8.73;;
12962;SDS011;6546;49.882;8.666;2023-08-21T07:47:19;10.05;;;8.20;;
12962;SDS011;6546;49.882;8.666;2023-08-21T07:49:45;9.27;;;8.48;;
12962;SDS011;6546;49.882;8.666;2023-08-21T07:52:12;12.57;;;9.40;;
12962;SDS011;6546;49.882;8.666;2023-08-21T07:54:41;11.15;;;8.57;;
12962;SDS011;6546;49.882;8.666;2023-08-21T07:57:07;9.00;;;8.18;;
12962;SDS011;6546;49.882;8.666;2023-08-21T07:59:35;9.50;;;8.57;;
12962;SDS011;6546;49.882;8.666;2023-08-21T08:02:02;9.70;;;8.80;;
12962;SDS011;6546;49.882;8.666;2023-08-21T08:04:29;9.38;;;8.45;;
12962;SDS011;6546;49.882;8.666;2023-08-21T08:06:56;9.43;;;8.52;;
12962;SDS011;6546;49.882;8.666;2023-08-21T08:09:22;9.73;;;8.90;;
12962;SDS011;6546;49.882;8.666;2023-08-21T08:11:50;9.27;;;8.43;;
12962;SDS011;6546;49.882;8.666;2023-08-21T08:14:16;9.95;;;8.50;;
12962;SDS011;6546;49.882;8.666;2023-08-21T08:16:44;12.40;;;9.07;;
12962;SDS011;6546;49.882;8.666;2023-08-21T08:19:11;10.35;;;9.10;;
12962;SDS011;6546;49.882;8.666;2023-08-21T08:21:38;9.20;;;8.40;;
12962;SDS011;6546;49.882;8.666;2023-08-21T08:24:04;10.50;;;9.15;;
12962;SDS011;6546;49.882;8.666;2023-08-21T08:26:31;11.95;;;9.25;;
12962;SDS011;6546;49.882;8.666;2023-08-21T08:28:58;9.43;;;8.27;;
12962;SDS011;6546;49.882;8.666;2023-08-21T08:31:24;9.32;;;8.43;;
12962;SDS011;6546;49.882;8.666;2023-08-21T08:33:53;9.77;;;8.77;;
12962;SDS011;6546;49.882;8.666;2023-08-21T08:36:20;9.85;;;8.55;;
12962;SDS011;6546;49.882;8.666;2023-08-21T08:38:47;10.50;;;9.45;;
12962;SDS011;6546;49.882;8.666;2023-08-21T08:41:14;9.23;;;8.43;;
12962;SDS011;6546;49.882;8.666;2023-08-21T08:43:50;9.55;;;8.57;;
12962;SDS011;6546;49.882;8.666;2023-08-21T08:46:17;9.45;;;8.43;;
12962;SDS011;6546;49.882;8.666;2023-08-21T08:48:44;9.85;;;8.73;;
12962;SDS011;6546;49.882;8.666;2023-08-21T08:51:12;8.90;;;8.10;;
12962;SDS011;6546;49.882;8.666;2023-08-21T08:53:39;10.23;;;8.35;;
12962;SDS011;6546;49.882;8.666;2023-08-21T08:56:08;10.85;;;8.85;;
12962;SDS011;6546;49.882;8.666;2023-08-21T08:58:34;9.73;;;8.82;;
12962;SDS011;6546;49.882;8.666;2023-08-21T09:01:01;11.50;;;9.27;;
12962;SDS011;6546;49.882;8.666;2023-08-21T09:03:27;10.23;;;8.60;;
12962;SDS011;6546;49.882;8.666;2023-08-21T09:05:55;11.52;;;8.63;;
12962;SDS011;6546;49.882;8.666;2023-08-21T09:08:26;10.32;;;9.38;;
12962;SDS011;6546;49.882;8.666;2023-08-21T09:10:53;13.25;;;8.70;;
12962;SDS011;6546;49.882;8.666;2023-08-21T09:13:20;9.52;;;8.68;;
12962;SDS011;6546;49.882;8.666;2023-08-21T09:15:47;9.68;;;8.50;;
12962;SDS011;6546;49.882;8.666;2023-08-21T09:18:14;9.50;;;8.18;;
12962;SDS011;6546;49.882;8.666;2023-08-21T09:20:41;9.75;;;8.77;;
12962;SDS011;6546;49.882;8.666;2023-08-21T09:23:08;9.43;;;8.63;;
12962;SDS011;6546;49.882;8.666;2023-08-21T09:25:41;11.10;;;8.85;;
12962;SDS011;6546;49.882;8.666;2023-08-21T09:28:09;11.60;;;8.45;;
12962;SDS011;6546;49.882;8.666;2023-08-21T09:30:48;10.77;;;8.48;;
12962;SDS011;6546;49.882;8.666;2023-08-21T09:33:19;9.30;;;7.40;;
12962;SDS011;6546;49.882;8.666;2023-08-21T09:35:47;9.75;;;7.15;;
12962;SDS011;6546;49.882;8.666;2023-08-21T09:38:15;10.05;;;7.57;;
12962;SDS011;6546;49.882;8.666;2023-08-21T09:40:49;16.38;;;8.20;;
12962;SDS011;6546;49.882;8.666;2023-08-21T09:43:17;10.15;;;8.10;;
12962;SDS011;6546;49.882;8.666;2023-08-21T09:45:45;18.52;;;7.72;;
12962;SDS011;6546;49.882;8.666;2023-08-21T09:48:12;10.40;;;6.28;;
12962;SDS011;6546;49.882;8.666;2023-08-21T09:50:39;10.88;;;7.07;;
12962;SDS011;6546;49.882;8.666;2023-08-21T09:53:06;7.55;;;6.88;;
12962;SDS011;6546;49.882;8.666;2023-08-21T09:55:33;8.20;;;6.90;;
12962;SDS011;6546;49.882;8.666;2023-08-21T09:58:02;6.93;;;6.07;;
12962;SDS011;6546;49.882;8.666;2023-08-21T10:00:30;6.95;;;6.25;;
12962;SDS011;6546;49.882;8.666;2023-08-21T10:03:00;5.75;;;5.30;;
12962;SDS011;6546;49.882;8.666;2023-08-21T10:05:28;9.05;;;5.78;;
12962;SDS011;6546;49.882;8.666;2023-08-21T10:07:56;7.43;;;6.18;;
12962;SDS011;6546;49.882;8.666;2023-08-21T10:10:26;10.70;;;6.40;;
12962;SDS011;6546;49.882;8.666;2023-08-21T10:12:54;7.32;;;6.07;;
12962;SDS011;6546;49.882;8.666;2023-08-21T10:15:22;6.53;;;5.90;;
12962;SDS011;6546;49.882;8.666;2023-08-21T10:17:49;7.55;;;5.88;;
12962;SDS011;6546;49.882;8.666;2023-08-21T10:20:20;6.72;;;6.03;;
12962;SDS011;6546;49.882;8.666;2023-08-21T10:22:48;6.50;;;5.95;;
12962;SDS011;6546;49.882;8.666;2023-08-21T10:25:16;7.25;;;5.93;;
12962;SDS011;6546;49.882;8.666;2023-08-21T10:27:45;7.05;;;5.43;;
12962;SDS011;6546;49.882;8.666;2023-08-21T10:30:16;5.82;;;5.32;;
12962;SDS011;6546;49.882;8.666;2023-08-21T10:32:48;7.47;;;5.20;;
12962;SDS011;6546;49.882;8.666;2023-08-21T10:35:17;5.75;;;3.67;;
12962;SDS011;6546;49.882;8.666;2023-08-21T10:40:33;7.32;;;4.20;;
12962;SDS011;6546;49.882;8.666;2023-08-21T10:43:00;4.00;;;2.65;;
12962;SDS011;6546;49.882;8.666;2023-08-21T10:45:28;3.75;;;2.65;;
12962;SDS011;6546;49.882;8.666;2023-08-21T10:47:57;3.25;;;1.90;;
12962;SDS011;6546;49.882;8.666;2023-08-21T10:50:24;3.13;;;2.28;;
12962;SDS011;6546;49.882;8.666;2023-08-21T10:52:51;4.18;;;2.97;;
12962;SDS011;6546;49.882;8.666;2023-08-21T10:55:19;4.25;;;3.28;;
12962;SDS011;6546;49.882;8.666;2023-08-21T10:57:46;5.05;;;4.53;;
12962;SDS011;6546;49.882;8.666;2023-08-21T11:00:14;4.55;;;4.15;;
12962;SDS011;6546;49.882;8.666;2023-08-21T11:02:43;4.85;;;4.38;;
12962;SDS011;6546;49.882;8.666;2023-08-21T11:05:12;5.82;;;4.18;;
12962;SDS011;6546;49.882;8.666;2023-08-21T11:07:41;6.22;;;4.00;;
12962;SDS011;6546;49.882;8.666;2023-08-21T11:10:09;4.68;;;4.28;;
12962;SDS011;6546;49.882;8.666;2023-08-21T11:12:37;5.88;;;4.47;;
12962;SDS011;6546;49.882;8.666;2023-08-21T11:15:04;5.50;;;4.88;;
12962;SDS011;6546;49.882;8.666;2023-08-21T11:17:31;5.32;;;4.75;;
12962;SDS011;6546;49.882;8.666;2023-08-21T11:20:00;5.35;;;3.92;;
12962;SDS011;6546;49.882;8.666;2023-08-21T11:22:31;6.03;;;5.03;;
12962;SDS011;6546;49.882;8.666;2023-08-21T11:24:58;8.43;;;4.55;;
12962;SDS011;6546;49.882;8.666;2023-08-21T11:27:25;5.68;;;4.32;;
12962;SDS011;6546;49.882;8.666;2023-08-21T11:29:52;6.65;;;4.40;;
12962;SDS011;6546;49.882;8.666;2023-08-21T11:32:19;5.90;;;4.10;;
12962;SDS011;6546;49.882;8.666;2023-08-21T11:34:50;5.38;;;4.30;;
12962;SDS011;6546;49.882;8.666;2023-08-21T11:37:17;6.18;;;4.50;;
12962;SDS011;6546;49.882;8.666;2023-08-21T11:39:47;9.13;;;4.10;;
12962;SDS011;6546;49.882;8.666;2023-08-21T11:42:16;4.78;;;3.58;;
12962;SDS011;6546;49.882;8.666;2023-08-21T11:44:43;10.25;;;4.38;;
12962;SDS011;6546;49.882;8.666;2023-08-21T11:47:12;5.07;;;3.85;;
12962;SDS011;6546;49.882;8.666;2023-08-21T11:49:39;6.15;;;3.95;;
12962;SDS011;6546;49.882;8.666;2023-08-21T11:52:07;3.30;;;3.05;;
12962;SDS011;6546;49.882;8.666;2023-08-21T11:54:34;5.15;;;3.80;;
12962;SDS011;6546;49.882;8.666;2023-08-21T11:57:07;10.70;;;3.75;;
12962;SDS011;6546;49.882;8.666;2023-08-21T11:59:34;8.43;;;3.53;;
12962;SDS011;6546;49.882;8.666;2023-08-21T12:02:07;4.30;;;3.40;;
12962;SDS011;6546;49.882;8.666;2023-08-21T12:04:35;3.25;;;2.95;;
12962;SDS011;6546;49.882;8.666;2023-08-21T12:07:02;5.47;;;3.45;;
12962;SDS011;6546;49.882;8.666;2023-08-21T12:09:29;3.10;;;2.85;;
12962;SDS011;6546;49.882;8.666;2023-08-21T12:11:56;5.43;;;3.30;;
12962;SDS011;6546;49.882;8.666;2023-08-21T12:14:24;3.78;;;2.65;;
12962;SDS011;6546;49.882;8.666;2023-08-21T12:16:51;4.85;;;3.00;;
12962;SDS011;6546;49.882;8.666;2023-08-21T12:19:17;4.88;;;2.95;;
12962;SDS011;6546;49.882;8.666;2023-08-21T12:21:44;4.90;;;2.78;;
12962;SDS011;6546;49.882;8.666;2023-08-21T12:24:11;4.05;;;2.67;;
12962;SDS011;6546;49.882;8.666;2023-08-21T12:26:38;4.65;;;2.40;;
12962;SDS011;6546;49.882;8.666;2023-08-21T12:29:06;4.20;;;2.90;;
12962;SDS011;6546;49.882;8.666;2023-08-21T12:31:34;6.95;;;2.92;;
12962;SDS011;6546;49.882;8.666;2023-08-21T12:34:02;4.05;;;2.88;;
12962;SDS011;6546;49.882;8.666;2023-08-21T12:36:28;3.05;;;2.75;;
12962;SDS011;6546;49.882;8.666;2023-08-21T12:38:55;6.18;;;2.60;;
12962;SDS011;6546;49.882;8.666;2023-08-21T12:41:21;3.55;;;2.67;;
12962;SDS011;6546;49.882;8.666;2023-08-21T12:43:48;3.20;;;2.90;;
12962;SDS011;6546;49.882;8.666;2023-08-21T12:46:15;6.03;;;2.70;;
12962;SDS011;6546;49.882;8.666;2023-08-21T12:48:43;3.38;;;2.80;;
12962;SDS011;6546;49.882;8.666;2023-08-21T12:51:09;7.72;;;3.03;;
12962;SDS011;6546;49.882;8.666;2023-08-21T12:53:36;5.00;;;2.72;;
12962;SDS011;6546;49.882;8.666;2023-08-21T12:56:02;2.30;;;2.10;;
12962;SDS011;6546;49.882;8.666;2023-08-21T12:58:29;2.80;;;2.50;;
12962;SDS011;6546;49.882;8.666;2023-08-21T13:00:58;5.68;;;2.78;;
12962;SDS011;6546;49.882;8.666;2023-08-21T13:03:24;25.02;;;3.65;;
12962;SDS011;6546;49.882;8.666;2023-08-21T13:05:53;13.23;;;3.40;;
12962;SDS011;6546;49.882;8.666;2023-08-21T13:08:22;2.60;;;2.40;;
12962;SDS011;6546;49.882;8.666;2023-08-21T13:10:48;2.67;;;2.35;;
12962;SDS011;6546;49.882;8.666;2023-08-21T13:13:15;2.67;;;2.17;;
12962;SDS011;6546;49.882;8.666;2023-08-21T13:15:41;2.47;;;2.28;;
12962;SDS011;6546;49.882;8.666;2023-08-21T13:18:09;3.28;;;2.85;;
12962;SDS011;6546;49.882;8.666;2023-08-21T13:20:36;3.45;;;2.50;;
12962;SDS011;6546;49.882;8.666;2023-08-21T13:23:04;2.17;;;1.90;;
12962;SDS011;6546;49.882;8.666;2023-08-21T13:25:31;3.30;;;1.65;;
12962;SDS011;6546;49.882;8.666;2023-08-21T13:28:00;3.65;;;1.60;;
12962;SDS011;6546;49.882;8.666;2023-08-21T13:30:28;3.15;;;1.67;;
12962;SDS011;6546;49.882;8.666;2023-08-21T13:32:55;3.88;;;1.92;;
12962;SDS011;6546;49.882;8.666;2023-08-21T13:35:22;3.25;;;1.83;;
12962;SDS011;6546;49.882;8.666;2023-08-21T13:37:49;3.75;;;1.98;;
12962;SDS011;6546;49.882;8.666;2023-08-21T13:40:18;2.75;;;1.70;;
12962;SDS011;6546;49.882;8.666;2023-08-21T13:42:44;7.65;;;2.67;;
12962;SDS011;6546;49.882;8.666;2023-08-21T13:45:13;8.43;;;2.25;;
12962;SDS011;6546;49.882;8.666;2023-08-21T13:47:42;2.08;;;1.88;;
12962;SDS011;6546;49.882;8.666;2023-08-21T13:50:10;2.13;;;1.92;;
12962;SDS011;6546;49.882;8.666;2023-08-21T13:52:37;7.32;;;2.30;;
12962;SDS011;6546;49.882;8.666;2023-08-21T13:55:05;4.07;;;1.75;;
12962;SDS011;6546;49.882;8.666;2023-08-21T13:57:33;2.50;;;2.00;;
12962;SDS011;6546;49.882;8.666;2023-08-21T14:00:01;3.38;;;1.60;;
12962;SDS011;6546;49.882;8.666;2023-08-21T14:02:32;5.50;;;2.00;;
12962;SDS011;6546;49.882;8.666;2023-08-21T14:04:59;1.48;;;1.38;;
12962;SDS011;6546;49.882;8.666;2023-08-21T14:07:25;2.08;;;1.90;;
12962;SDS011;6546;49.882;8.666;2023-08-21T14:09:52;1.95;;;1.70;;
12962;SDS011;6546;49.882;8.666;2023-08-21T14:12:19;1.80;;;1.60;;
12962;SDS011;6546;49.882;8.666;2023-08-21T14:14:46;1.85;;;1.65;;
12962;SDS011;6546;49.882;8.666;2023-08-21T14:17:13;2.63;;;1.55;;
12962;SDS011;6546;49.882;8.666;2023-08-21T14:19:40;2.22;;;1.70;;
12962;SDS011;6546;49.882;8.666;2023-08-21T14:22:07;3.75;;;1.92;;
12962;SDS011;6546;49.882;8.666;2023-08-21T14:24:33;1.90;;;1.80;;
12962;SDS011;6546;49.882;8.666;2023-08-21T14:27:00;2.00;;;1.80;;
12962;SDS011;6546;49.882;8.666;2023-08-21T14:29:27;1.80;;;1.70;;
12962;SDS011;6546;49.882;8.666;2023-08-21T14:31:55;2.20;;;1.75;;
12962;SDS011;6546;49.882;8.666;2023-08-21T14:34:25;1.83;;;1.60;;
12962;SDS011;6546;49.882;8.666;2023-08-21T14:36:52;3.17;;;1.63;;
12962;SDS011;6546;49.882;8.666;2023-08-21T14:39:21;1.83;;;1.60;;
12962;SDS011;6546;49.882;8.666;2023-08-21T14:41:52;1.60;;;1.50;;
12962;SDS011;6546;49.882;8.666;2023-08-21T14:44:21;2.35;;;1.77;;
12962;SDS011;6546;49.882;8.666;2023-08-21T14:46:48;2.03;;;1.77;;
12962;SDS011;6546;49.882;8.666;2023-08-21T14:49:16;3.20;;;1.73;;
12962;SDS011;6546;49.882;8.666;2023-08-21T14:51:43;1.88;;;1.77;;
12962;SDS011;6546;49.882;8.666;2023-08-21T14:54:09;2.00;;;1.65;;